Time;durP1;ratioP1;P1;durP2;ratioP2;P2;SDS_P1;SDS_P2;PMS_P1;PMS_P2;Temp;Humidity;BMP_temperature;BMP_pressure;BME280_temperature;BME280_humidity;BME280_pressure;Samples;Min_cycle;Max_cycle;Signal;HPM_P1;HPM_P2
2022/06/02 00:00:25;;;;;;;8.10;4.77;;;13.90;1.00;;;;;;5062127;28;20459;-74
2022/06/02 00:03:04;;;;;;;8.30;4.20;;;13.90;1.00;;;;;;5062532;28;21079;-74
2022/06/02 00:05:51;;;;;;;7.23;4.53;;;13.90;1.00;;;;;;5061794;28;20541;-74
2022/06/02 00:08:26;;;;;;;8.13;4.70;;;13.90;1.00;;;;;;5054555;28;21394;-74
2022/06/02 00:11:00;;;;;;;7.50;4.40;;;13.90;1.00;;;;;;5076109;28;20455;-74
2022/06/02 00:13:35;;;;;;;8.33;4.40;;;13.90;1.00;;;;;;5062842;28;20465;-74
2022/06/02 00:16:07;;;;;;;8.03;4.50;;;13.80;1.00;;;;;;5064352;28;20509;-74
2022/06/02 00:18:47;;;;;;;7.37;4.30;;;13.90;1.00;;;;;;5054404;28;20513;-74
2022/06/02 00:21:27;;;;;;;8.20;4.80;;;13.80;1.00;;;;;;5071539;28;20527;-75
2022/06/02 00:24:00;;;;;;;9.10;4.67;;;13.80;1.00;;;;;;5063963;28;20484;-75
2022/06/02 00:26:39;;;;;;;8.90;5.30;;;13.80;1.00;;;;;;5061413;28;20544;-74
2022/06/02 00:29:17;;;;;;;8.80;5.00;;;13.70;1.00;;;;;;5061737;28;20572;-74
2022/06/02 00:31:52;;;;;;;9.87;4.43;;;13.80;1.00;;;;;;5063214;28;20835;-74
2022/06/02 00:34:25;;;;;;;7.30;4.37;;;13.80;1.00;;;;;;5059858;28;20565;-74
2022/06/02 00:37:04;;;;;;;7.70;4.40;;;13.80;1.00;;;;;;5059676;28;20463;-75
2022/06/02 00:39:33;;;;;;;8.40;4.73;;;13.80;1.00;;;;;;5059778;28;20570;-74
2022/06/02 00:42:09;;;;;;;7.80;4.20;;;13.70;1.00;;;;;;5060724;28;20875;-73
2022/06/02 00:44:46;;;;;;;12.43;4.40;;;13.70;1.00;;;;;;5060693;28;20542;-73
2022/06/02 00:47:34;;;;;;;7.50;4.00;;;13.70;1.00;;;;;;5062949;28;20451;-75
2022/06/02 00:50:06;;;;;;;6.80;3.73;;;13.70;1.00;;;;;;5059040;28;20511;-74
2022/06/02 00:52:45;;;;;;;7.30;3.97;;;13.70;1.00;;;;;;5059672;28;20509;-74
2022/06/02 00:58:18;;;;;;;7.43;3.50;;;13.60;1.00;;;;;;5059388;28;20470;-74
2022/06/02 01:00:51;;;;;;;8.10;3.50;;;13.60;1.00;;;;;;5041713;28;20499;-74
2022/06/02 01:03:22;;;;;;;7.10;3.60;;;13.70;1.00;;;;;;5052909;28;20561;-74
2022/06/02 01:06:16;;;;;;;7.20;3.20;;;13.60;1.00;;;;;;5061094;28;20545;-74
2022/06/02 01:09:06;;;;;;;8.80;2.87;;;13.50;1.00;;;;;;5060490;28;20548;-74
2022/06/02 01:11:43;;;;;;;6.17;2.93;;;13.50;1.00;;;;;;5057902;28;20464;-75
2022/06/02 01:14:29;;;;;;;6.77;3.20;;;13.40;1.00;;;;;;5063901;28;20458;-74
2022/06/02 01:17:05;;;;;;;7.07;3.33;;;13.40;1.00;;;;;;5060291;28;20462;-76
2022/06/02 01:19:56;;;;;;;7.10;3.50;;;13.40;1.00;;;;;;5059892;28;20539;-73
2022/06/02 01:22:42;;;;;;;7.03;3.57;;;13.40;1.00;;;;;;5055088;28;20501;-74
2022/06/02 01:25:48;;;;;;;6.47;3.17;;;13.30;1.00;;;;;;5064353;28;20643;-75
2022/06/02 01:28:45;;;;;;;7.27;3.70;;;13.20;1.00;;;;;;5059070;28;20531;-75
2022/06/02 01:31:25;;;;;;;7.53;3.23;;;13.10;1.00;;;;;;5057601;28;20477;-75
2022/06/02 01:34:00;;;;;;;8.00;3.60;;;13.00;1.00;;;;;;5058173;28;20500;-74
2022/06/02 01:36:36;;;;;;;7.17;3.47;;;13.00;1.00;;;;;;5063612;28;20544;-74
2022/06/02 01:39:18;;;;;;;8.60;3.77;;;12.90;1.00;;;;;;5059642;28;21046;-74
2022/06/02 01:41:53;;;;;;;6.63;3.20;;;12.90;1.00;;;;;;5057861;28;20541;-73
2022/06/02 01:44:24;;;;;;;7.10;3.60;;;12.80;1.00;;;;;;5048299;28;21002;-74
2022/06/02 01:47:00;;;;;;;7.40;3.70;;;12.80;1.00;;;;;;5047584;28;20475;-74
2022/06/02 01:49:40;;;;;;;7.30;3.47;;;12.80;1.00;;;;;;5061456;28;20813;-75
2022/06/02 01:52:26;;;;;;;6.80;3.30;;;12.60;1.00;;;;;;5061521;28;20548;-74
2022/06/02 01:55:06;;;;;;;7.57;4.20;;;12.70;1.00;;;;;;5056810;28;20609;-74
2022/06/02 01:57:56;;;;;;;7.60;4.50;;;12.60;1.00;;;;;;5056565;28;20925;-73
2022/06/02 02:00:25;;;;;;;8.30;4.40;;;12.50;1.00;;;;;;5060149;28;20472;-73
2022/06/02 02:03:14;;;;;;;10.50;4.50;;;12.50;1.00;;;;;;5061399;28;20469;-73
2022/06/02 02:05:55;;;;;;;8.17;4.53;;;12.40;1.00;;;;;;5061484;28;20573;-73
2022/06/02 02:09:04;;;;;;;7.20;4.00;;;12.40;1.00;;;;;;5062372;28;20465;-73
2022/06/02 02:11:45;;;;;;;8.00;4.70;;;12.40;1.00;;;;;;5060817;28;20983;-74
2022/06/02 02:14:36;;;;;;;8.10;4.80;;;12.30;1.00;;;;;;5060331;28;20518;-75
2022/06/02 02:17:15;;;;;;;9.10;4.80;;;12.30;1.00;;;;;;5067007;28;20477;-73
2022/06/02 02:19:52;;;;;;;7.77;4.30;;;12.20;1.00;;;;;;5063314;28;20619;-75
2022/06/02 02:22:30;;;;;;;7.90;4.80;;;12.10;1.00;;;;;;5062089;28;20472;-75
2022/06/02 02:25:12;;;;;;;8.20;4.30;;;12.10;1.00;;;;;;5063438;28;20553;-73
2022/06/02 02:28:05;;;;;;;9.20;4.77;;;12.10;1.00;;;;;;5061316;28;20482;-73
2022/06/02 02:30:41;;;;;;;10.10;4.80;;;12.10;1.00;;;;;;5061701;28;20955;-75
2022/06/02 02:33:21;;;;;;;8.00;4.13;;;12.00;1.00;;;;;;5061705;28;22239;-75
2022/06/02 02:35:58;;;;;;;8.30;4.40;;;12.00;1.00;;;;;;5063377;28;20554;-75
2022/06/02 02:38:48;;;;;;;7.30;3.90;;;12.00;1.00;;;;;;5062244;28;20502;-73
2022/06/02 02:41:20;;;;;;;8.57;4.40;;;12.00;1.00;;;;;;5062499;28;20464;-73
2022/06/02 02:43:55;;;;;;;8.60;4.57;;;11.90;1.00;;;;;;5061579;28;20570;-73
2022/06/02 02:46:28;;;;;;;7.80;4.03;;;11.90;1.00;;;;;;5059235;28;20577;-73
2022/06/02 02:49:01;;;;;;;8.10;4.37;;;11.90;1.00;;;;;;5064699;28;20542;-73
2022/06/02 02:51:43;;;;;;;9.93;4.97;;;11.80;1.00;;;;;;5061581;28;20484;-74
2022/06/02 02:54:14;;;;;;;7.87;4.80;;;11.70;1.00;;;;;;5059673;28;20491;-73
2022/06/02 02:56:48;;;;;;;8.37;4.80;;;11.80;1.00;;;;;;5067362;28;20858;-74
2022/06/02 02:59:20;;;;;;;9.17;4.70;;;11.70;1.00;;;;;;5061941;28;20514;-73
2022/06/02 03:01:54;;;;;;;8.40;5.20;;;11.70;1.00;;;;;;5060858;28;20452;-74
2022/06/02 03:04:37;;;;;;;8.67;4.60;;;11.70;1.00;;;;;;5060504;28;20625;-74
2022/06/02 03:07:06;;;;;;;9.17;4.43;;;11.70;1.00;;;;;;5058905;28;20521;-74
2022/06/02 03:09:42;;;;;;;7.30;4.20;;;11.70;1.00;;;;;;5063324;28;21235;-74
2022/06/02 03:12:18;;;;;;;8.10;5.13;;;11.70;1.00;;;;;;5063015;28;20509;-75
2022/06/02 03:15:03;;;;;;;8.70;4.60;;;11.70;1.00;;;;;;5061857;28;20448;-73
2022/06/02 03:20:58;;;;;;;8.53;5.13;;;11.60;1.00;;;;;;5054232;28;20472;-73
2022/06/02 03:27:07;;;;;;;8.60;4.47;;;11.50;1.00;;;;;;5061218;28;20946;-74
2022/06/02 03:29:50;;;;;;;7.87;3.90;;;11.60;1.00;;;;;;5066779;28;20487;-73
2022/06/02 03:32:40;;;;;;;7.83;4.47;;;11.50;1.00;;;;;;5063583;28;20570;-74
2022/06/02 03:35:16;;;;;;;8.50;4.60;;;11.60;1.00;;;;;;5063005;28;20894;-74
2022/06/02 03:37:52;;;;;;;8.20;4.40;;;11.50;1.00;;;;;;5061207;28;20513;-74
2022/06/02 03:40:34;;;;;;;9.53;5.10;;;11.60;1.00;;;;;;5064194;28;20899;-73
2022/06/02 03:43:12;;;;;;;9.00;4.30;;;11.60;1.00;;;;;;5062232;28;20500;-74
2022/06/02 03:45:51;;;;;;;9.63;5.40;;;11.60;1.00;;;;;;5060412;28;20447;-74
2022/06/02 03:48:35;;;;;;;8.10;4.70;;;11.60;1.00;;;;;;5063451;28;20496;-74
2022/06/02 03:51:16;;;;;;;8.93;5.40;;;11.60;1.00;;;;;;5062849;28;20588;-73
2022/06/02 03:54:15;;;;;;;11.37;7.10;;;11.60;1.00;;;;;;5064264;28;20492;-74
2022/06/02 03:57:09;;;;;;;8.70;5.10;;;11.70;1.00;;;;;;5055149;28;20448;-73
2022/06/02 03:59:56;;;;;;;8.60;5.57;;;11.70;1.00;;;;;;5061213;28;21062;-73
2022/06/02 04:02:29;;;;;;;8.67;4.90;;;11.70;1.00;;;;;;5051415;27;20460;-75
2022/06/02 04:05:08;;;;;;;8.97;5.20;;;11.90;1.00;;;;;;5059842;28;20564;-75
2022/06/02 04:07:38;;;;;;;10.20;5.10;;;12.00;1.00;;;;;;5056566;28;20542;-74
2022/06/02 04:10:18;;;;;;;8.77;5.00;;;12.10;1.00;;;;;;5063357;28;20493;-75
2022/06/02 04:16:11;;;;;;;11.33;6.43;;;12.30;1.00;;;;;;5059143;28;20465;-73
2022/06/02 04:18:53;;;;;;;10.57;6.50;;;12.40;1.00;;;;;;5059515;28;20454;-74
2022/06/02 04:21:34;;;;;;;12.17;6.87;;;12.50;1.00;;;;;;5061484;28;20486;-73
2022/06/02 04:24:16;;;;;;;10.27;5.70;;;12.50;1.00;;;;;;5063224;28;20477;-73
2022/06/02 04:27:05;;;;;;;9.30;6.20;;;12.40;1.00;;;;;;5065685;28;20541;-74
2022/06/02 04:30:00;;;;;;;9.30;5.47;;;12.50;1.00;;;;;;5049220;28;20462;-74
2022/06/02 04:32:40;;;;;;;10.20;5.20;;;12.50;1.00;;;;;;5064123;28;20474;-74
2022/06/02 04:35:20;;;;;;;8.80;5.60;;;12.60;1.00;;;;;;5061792;28;20454;-74
2022/06/02 04:37:56;;;;;;;10.80;5.90;;;12.70;1.00;;;;;;5061395;28;20510;-75
2022/06/02 04:40:34;;;;;;;9.60;6.10;;;12.70;1.00;;;;;;5059860;28;21450;-75
2022/06/02 04:43:13;;;;;;;10.43;5.53;;;12.70;1.00;;;;;;5061374;28;20541;-75
2022/06/02 04:49:18;;;;;;;8.90;5.50;;;12.70;1.00;;;;;;5042307;28;20478;-74
2022/06/02 04:51:51;;;;;;;15.50;7.27;;;12.70;1.00;;;;;;5051793;28;20494;-75
2022/06/02 04:54:28;;;;;;;9.30;5.53;;;12.70;1.00;;;;;;5060013;28;21447;-75
2022/06/02 04:57:01;;;;;;;16.03;12.00;;;12.80;1.00;;;;;;5061386;28;20513;-74
2022/06/02 04:59:36;;;;;;;10.73;6.67;;;12.90;1.00;;;;;;5059420;28;20478;-75
2022/06/02 05:02:13;;;;;;;11.83;7.23;;;12.90;1.00;;;;;;5055582;28;20600;-75
2022/06/02 05:04:51;;;;;;;13.43;7.43;;;13.00;1.00;;;;;;5061636;28;20462;-75
2022/06/02 05:07:26;;;;;;;10.50;7.00;;;13.10;1.00;;;;;;5059116;28;20466;-74
2022/06/02 05:10:05;;;;;;;12.07;8.37;;;13.20;1.00;;;;;;5061033;28;20481;-74
2022/06/02 05:12:46;;;;;;;10.37;6.57;;;13.30;1.00;;;;;;5057719;28;20537;-74
2022/06/02 05:15:19;;;;;;;11.07;7.60;;;13.40;1.00;;;;;;5060941;28;20465;-76
2022/06/02 05:18:29;;;;;;;10.03;7.23;;;13.50;1.00;;;;;;5062941;28;20482;-75
2022/06/02 05:21:29;;;;;;;17.13;7.70;;;13.60;1.00;;;;;;5066209;28;20484;-73
2022/06/02 05:24:32;;;;;;;11.57;7.87;;;13.70;1.00;;;;;;5060688;28;20537;-77
2022/06/02 05:27:32;;;;;;;10.83;7.77;;;13.90;1.00;;;;;;5060329;28;20469;-75
2022/06/02 05:30:24;;;;;;;13.07;8.17;;;13.90;1.00;;;;;;5057033;28;20524;-74
2022/06/02 05:33:09;;;;;;;14.97;8.03;;;13.80;1.00;;;;;;5039164;28;20471;-75
2022/06/02 05:35:52;;;;;;;12.53;7.97;;;13.80;1.00;;;;;;5056425;28;20528;-75
2022/06/02 05:42:04;;;;;;;11.50;8.40;;;14.00;1.00;;;;;;4988697;28;20479;-75
2022/06/02 05:44:52;;;;;;;11.93;8.10;;;14.10;1.00;;;;;;5060164;28;20529;-77
2022/06/02 05:47:30;;;;;;;13.50;8.60;;;14.20;1.00;;;;;;5057871;28;20871;-73
2022/06/02 05:50:07;;;;;;;12.40;7.60;;;14.30;1.00;;;;;;5055518;28;20467;-76
2022/06/02 05:52:51;;;;;;;17.40;8.23;;;14.30;1.00;;;;;;5062372;28;20637;-74
2022/06/02 05:55:30;;;;;;;12.93;8.03;;;14.30;1.00;;;;;;5060813;28;20491;-74
2022/06/02 05:58:15;;;;;;;11.30;8.10;;;14.20;1.00;;;;;;5064563;28;20477;-74
2022/06/02 06:00:54;;;;;;;13.50;8.80;;;14.00;1.00;;;;;;5037883;28;20555;-77
2022/06/02 06:04:01;;;;;;;15.93;9.63;;;13.90;1.00;;;;;;5040775;28;20545;-75
2022/06/02 06:06:33;;;;;;;11.50;7.93;;;13.90;1.00;;;;;;5064855;28;20572;-76
2022/06/02 06:09:09;;;;;;;12.57;7.80;;;14.00;1.00;;;;;;5065015;28;20498;-75
2022/06/02 06:15:06;;;;;;;13.80;8.93;;;14.10;1.00;;;;;;5064637;28;20455;-75
2022/06/02 06:17:43;;;;;;;14.23;9.50;;;14.10;1.00;;;;;;5058294;28;20475;-76
2022/06/02 06:20:33;;;;;;;12.90;9.93;;;14.10;1.00;;;;;;5063148;28;20458;-75
2022/06/02 06:23:10;;;;;;;15.20;10.20;;;14.10;1.00;;;;;;5063185;28;20511;-74
2022/06/02 06:26:01;;;;;;;12.90;9.60;;;14.10;1.00;;;;;;5065730;28;20486;-75
2022/06/02 06:28:32;;;;;;;12.30;9.87;;;14.30;1.00;;;;;;5063892;28;20573;-76
2022/06/02 06:31:03;;;;;;;12.23;9.43;;;14.50;1.00;;;;;;5060943;28;20558;-75
2022/06/02 06:33:51;;;;;;;16.13;11.77;;;14.60;1.00;;;;;;5058382;28;20541;-75
2022/06/02 06:36:35;;;;;;;13.83;10.20;;;14.60;1.00;;;;;;5061164;28;20443;-75
2022/06/02 06:39:07;;;;;;;12.53;9.33;;;14.60;1.00;;;;;;5061760;28;20910;-75
2022/06/02 06:41:54;;;;;;;11.70;9.33;;;14.60;1.00;;;;;;5059317;28;20539;-75
2022/06/02 06:44:26;;;;;;;12.73;9.50;;;14.60;1.00;;;;;;5063124;28;20518;-74
2022/06/02 06:47:05;;;;;;;12.90;10.43;;;14.50;1.00;;;;;;5059918;28;20594;-74
2022/06/02 06:49:44;;;;;;;14.20;11.30;;;14.50;1.00;;;;;;5057720;28;20546;-75
2022/06/02 06:52:26;;;;;;;13.67;11.10;;;14.50;1.00;;;;;;5058908;28;20436;-79
2022/06/02 06:55:01;;;;;;;16.07;11.40;;;14.70;1.00;;;;;;5079451;28;20492;-76
2022/06/02 06:57:41;;;;;;;13.50;10.27;;;14.90;1.00;;;;;;5059471;28;20483;-75
2022/06/02 07:00:18;;;;;;;12.93;10.40;;;15.00;1.00;;;;;;5057943;28;20462;-73
2022/06/02 07:02:57;;;;;;;14.43;11.00;;;15.10;1.00;;;;;;5056997;28;20542;-75
2022/06/02 07:05:32;;;;;;;14.57;11.53;;;15.00;1.00;;;;;;5064252;28;20455;-75
2022/06/02 07:08:06;;;;;;;14.20;9.80;;;14.90;1.00;;;;;;5063167;28;20536;-73
2022/06/02 07:10:36;;;;;;;13.70;10.90;;;15.00;1.00;;;;;;5066358;28;20494;-74
2022/06/02 07:13:12;;;;;;;16.93;11.30;;;15.30;1.00;;;;;;5064599;28;20467;-73
2022/06/02 07:15:47;;;;;;;15.20;10.90;;;15.60;1.00;;;;;;5065984;28;21342;-75
2022/06/02 07:18:24;;;;;;;13.63;10.30;;;15.60;1.00;;;;;;5059075;28;20456;-74
2022/06/02 07:20:57;;;;;;;13.33;10.40;;;15.80;1.00;;;;;;5063830;28;20479;-73
2022/06/02 07:23:38;;;;;;;11.97;10.67;;;15.80;1.00;;;;;;5065456;28;20491;-74
2022/06/02 07:26:14;;;;;;;13.43;10.70;;;15.90;1.00;;;;;;5064159;28;20493;-74
2022/06/02 07:28:53;;;;;;;17.83;12.37;;;15.90;1.00;;;;;;5068191;28;21010;-74
2022/06/02 07:31:32;;;;;;;12.67;9.23;;;15.90;1.00;;;;;;5073728;28;20471;-77
2022/06/02 07:34:14;;;;;;;11.73;9.10;;;15.80;1.00;;;;;;5067484;28;20478;-76
2022/06/02 07:37:01;;;;;;;14.67;9.67;;;15.70;1.00;;;;;;5064823;28;20540;-75
2022/06/02 07:39:54;;;;;;;13.20;9.97;;;15.80;1.00;;;;;;5069212;28;20459;-76
2022/06/02 07:42:38;;;;;;;12.73;8.90;;;16.20;1.00;;;;;;5046183;28;20557;-75
2022/06/02 07:45:30;;;;;;;12.87;9.20;;;16.50;1.00;;;;;;5062463;28;20460;-76
2022/06/02 07:48:25;;;;;;;11.80;8.80;;;16.50;1.00;;;;;;5062936;28;20899;-76
2022/06/02 07:51:02;;;;;;;16.30;10.90;;;16.40;1.00;;;;;;5035225;28;20445;-76
2022/06/02 07:53:41;;;;;;;11.37;8.80;;;16.50;1.00;;;;;;5065048;28;20525;-77
2022/06/02 07:56:15;;;;;;;12.18;8.57;;;16.80;1.00;;;;;;5064328;28;20492;-75
2022/06/02 07:58:52;;;;;;;12.00;7.93;;;17.00;1.00;;;;;;5063272;28;20260;-76
2022/06/02 08:01:50;;;;;;;11.80;9.10;;;17.00;1.00;;;;;;5068440;28;20467;-76
2022/06/02 08:04:25;;;;;;;11.97;6.77;;;17.00;1.00;;;;;;5064106;28;20490;-76
2022/06/02 08:07:04;;;;;;;9.87;5.80;;;17.10;1.00;;;;;;5069141;28;20486;-75
2022/06/02 08:09:45;;;;;;;10.50;5.80;;;17.00;1.00;;;;;;5067629;28;20451;-75
2022/06/02 08:12:21;;;;;;;10.67;6.47;;;16.90;1.00;;;;;;5066355;28;20533;-76
2022/06/02 08:15:08;;;;;;;8.33;5.40;;;17.10;1.00;;;;;;5065428;28;20533;-75
2022/06/02 08:17:38;;;;;;;8.00;5.30;;;17.30;1.00;;;;;;5064917;28;20460;-76
2022/06/02 08:20:24;;;;;;;11.37;5.40;;;17.40;1.00;;;;;;5061588;28;20480;-76
2022/06/02 08:23:00;;;;;;;9.90;6.30;;;17.60;1.00;;;;;;5044457;28;20432;-74
2022/06/02 08:25:38;;;;;;;10.90;6.20;;;17.90;1.00;;;;;;5048024;28;20491;-75
2022/06/02 08:28:23;;;;;;;11.03;6.33;;;18.20;1.00;;;;;;5068054;28;20447;-76
2022/06/02 08:30:57;;;;;;;9.20;5.80;;;18.50;1.00;;;;;;5067543;28;20455;-75
2022/06/02 08:33:38;;;;;;;8.23;5.00;;;18.20;1.00;;;;;;5063962;28;20464;-75
2022/06/02 08:36:12;;;;;;;11.00;4.97;;;17.80;1.00;;;;;;5064077;28;20471;-74
2022/06/02 08:38:55;;;;;;;7.47;3.90;;;17.70;1.00;;;;;;5059848;28;20494;-75
2022/06/02 08:41:49;;;;;;;7.83;4.03;;;17.70;1.00;;;;;;5069379;28;20495;-76
2022/06/02 08:44:46;;;;;;;9.27;3.80;;;17.50;1.00;;;;;;5066960;27;20479;-76
2022/06/02 08:47:48;;;;;;;8.20;4.90;;;17.60;1.00;;;;;;5066584;28;20467;-76
2022/06/02 08:50:35;;;;;;;8.20;3.60;;;18.00;1.00;;;;;;5069579;28;20455;-76
2022/06/02 08:53:41;;;;;;;8.37;4.23;;;18.40;1.00;;;;;;5055947;28;21041;-75
2022/06/02 08:56:32;;;;;;;7.10;3.73;;;18.80;1.00;;;;;;5069409;28;20857;-76
2022/06/02 08:59:39;;;;;;;9.00;3.70;;;19.10;1.00;;;;;;5062673;28;20840;-77
2022/06/02 09:02:20;;;;;;;7.53;4.00;;;19.10;1.00;;;;;;5068625;28;20542;-75
2022/06/02 09:05:27;;;;;;;6.27;3.10;;;18.80;1.00;;;;;;5059595;28;20482;-75
2022/06/02 09:08:11;;;;;;;8.10;3.60;;;18.60;1.00;;;;;;5068681;28;20533;-76
2022/06/02 09:10:52;;;;;;;7.80;4.60;;;18.40;1.00;;;;;;5065347;28;20606;-75
2022/06/02 09:13:53;;;;;;;7.57;3.93;;;18.40;1.00;;;;;;5065732;28;20478;-75
2022/06/02 09:16:29;;;;;;;8.00;4.00;;;18.50;1.00;;;;;;5069286;28;20542;-75
2022/06/02 09:19:11;;;;;;;7.90;3.63;;;18.70;1.00;;;;;;5072413;28;20466;-75
2022/06/02 09:21:58;;;;;;;8.20;3.10;;;19.00;1.00;;;;;;5067123;28;20460;-75
2022/06/02 09:24:28;;;;;;;6.33;2.93;;;18.80;1.00;;;;;;5065368;27;20464;-76
2022/06/02 09:27:00;;;;;;;6.90;3.27;;;18.60;1.00;;;;;;5068697;28;20896;-76
2022/06/02 09:29:42;;;;;;;6.63;3.10;;;18.70;1.00;;;;;;5066336;28;20424;-76
2022/06/02 09:32:32;;;;;;;9.50;3.50;;;19.20;1.00;;;;;;5068642;28;20475;-76
2022/06/02 09:35:09;;;;;;;6.37;3.07;;;19.80;1.00;;;;;;5066067;28;21040;-76
2022/06/02 09:38:19;;;;;;;5.30;2.70;;;20.80;1.00;;;;;;5068900;28;20446;-76
2022/06/02 09:40:51;;;;;;;6.60;2.87;;;22.50;1.00;;;;;;5056502;28;20455;-76
2022/06/02 09:43:47;;;;;;;5.70;2.53;;;22.30;1.00;;;;;;5066909;28;21018;-76
2022/06/02 09:46:53;;;;;;;10.53;4.47;;;21.80;1.00;;;;;;5067049;28;20864;-76
2022/06/02 09:49:54;;;;;;;4.83;2.23;;;21.50;1.00;;;;;;5066762;28;20510;-77
2022/06/02 09:52:32;;;;;;;6.50;2.23;;;23.20;1.00;;;;;;5065875;28;20468;-75
2022/06/02 09:55:12;;;;;;;5.73;2.60;;;24.40;1.00;;;;;;5063459;28;20980;-76
2022/06/02 09:57:56;;;;;;;5.20;2.03;;;24.00;1.00;;;;;;5062097;28;20467;-76
2022/06/02 10:00:35;;;;;;;4.73;2.20;;;24.50;1.00;;;;;;5066211;28;20470;-77
2022/06/02 10:03:16;;;;;;;7.20;3.60;;;24.80;1.00;;;;;;5062581;28;20463;-75
2022/06/02 10:05:58;;;;;;;6.40;3.23;;;24.70;1.00;;;;;;5062719;28;20495;-75
2022/06/02 10:08:38;;;;;;;5.87;2.40;;;24.00;1.00;;;;;;5064748;28;20951;-76
2022/06/02 10:11:16;;;;;;;4.77;1.80;;;24.10;1.00;;;;;;5064289;28;20996;-74
2022/06/02 10:14:00;;;;;;;6.33;2.00;;;24.70;1.00;;;;;;5063737;28;20451;-75
2022/06/02 10:17:09;;;;;;;6.30;2.10;;;26.00;1.00;;;;;;5060910;28;20464;-76
2022/06/02 10:20:07;;;;;;;6.00;1.97;;;27.20;1.00;;;;;;5066215;28;20475;-76
2022/06/02 10:22:46;;;;;;;5.33;2.00;;;28.00;1.00;;;;;;5065897;28;20478;-76
2022/06/02 10:25:39;;;;;;;4.40;1.70;;;28.80;1.00;;;;;;5060483;28;20452;-75
2022/06/02 10:28:42;;;;;;;4.53;1.80;;;29.40;1.00;;;;;;5067925;28;20482;-76
2022/06/02 10:31:38;;;;;;;5.33;1.70;;;30.10;1.00;;;;;;5071011;28;20540;-76
2022/06/02 10:34:34;;;;;;;5.70;1.80;;;29.40;1.00;;;;;;5067145;28;20522;-75
2022/06/02 10:37:13;;;;;;;4.70;1.97;;;28.80;1.00;;;;;;5068231;28;20967;-75
2022/06/02 10:40:22;;;;;;;5.43;2.37;;;28.20;1.00;;;;;;5066082;28;20467;-74
2022/06/02 10:43:16;;;;;;;8.53;2.80;;;26.60;1.00;;;;;;5059365;28;20573;-76
2022/06/02 10:46:03;;;;;;;5.50;2.20;;;26.10;1.00;;;;;;5035913;28;20448;-75
2022/06/02 10:49:08;;;;;;;6.50;3.00;;;27.00;1.00;;;;;;5067721;28;20510;-76
2022/06/02 10:52:09;;;;;;;5.50;2.10;;;25.90;1.00;;;;;;5059414;28;20537;-75
2022/06/02 10:55:03;;;;;;;5.33;1.93;;;25.30;1.00;;;;;;5066028;28;20497;-75
2022/06/02 10:57:53;;;;;;;5.53;1.80;;;27.10;1.00;;;;;;5056883;28;20467;-74
2022/06/02 11:00:38;;;;;;;5.10;2.03;;;27.80;1.00;;;;;;5075573;28;20475;-76
2022/06/02 11:03:41;;;;;;;4.73;1.80;;;27.50;1.00;;;;;;5070095;28;20471;-76
2022/06/02 11:06:41;;;;;;;5.30;1.30;;;27.90;1.00;;;;;;5069249;28;20464;-75
2022/06/02 11:09:48;;;;;;;4.73;2.10;;;29.50;1.00;;;;;;5066137;28;20487;-75
2022/06/02 11:12:44;;;;;;;4.50;1.60;;;30.90;1.00;;;;;;5065035;28;20634;-75
2022/06/02 11:15:34;;;;;;;6.07;2.20;;;31.60;1.00;;;;;;5065802;28;20476;-75
2022/06/02 11:18:27;;;;;;;6.80;3.20;;;31.10;1.00;;;;;;5069253;28;20514;-76
2022/06/02 11:21:20;;;;;;;4.30;1.77;;;29.80;1.00;;;;;;5067844;28;20470;-74
2022/06/02 11:24:10;;;;;;;4.33;1.90;;;27.90;1.00;;;;;;5060066;28;20807;-75
2022/06/02 11:27:29;;;;;;;4.60;1.53;;;27.20;1.00;;;;;;5066645;28;20502;-75
2022/06/02 11:30:32;;;;;;;4.67;1.70;;;26.10;1.00;;;;;;5071074;28;20587;-77
2022/06/02 11:33:38;;;;;;;4.20;1.80;;;25.60;1.00;;;;;;5071562;28;20463;-75
2022/06/02 11:36:45;;;;;;;4.30;1.50;;;27.80;1.00;;;;;;5077381;28;20419;-76
2022/06/02 11:39:46;;;;;;;3.90;1.50;;;28.00;1.00;;;;;;5073771;28;20461;-76
2022/06/02 11:42:31;;;;;;;4.33;1.73;;;26.40;1.00;;;;;;5065222;28;20447;-76
2022/06/02 11:45:11;;;;;;;4.50;1.27;;;26.70;1.00;;;;;;5073360;28;20472;-75
2022/06/02 11:47:57;;;;;;;5.03;2.17;;;28.70;1.00;;;;;;5072412;28;20504;-76
2022/06/02 11:51:04;;;;;;;5.00;1.80;;;30.40;1.00;;;;;;5071481;28;20443;-76
2022/06/02 11:54:14;;;;;;;5.10;2.00;;;31.30;1.00;;;;;;5067535;28;20535;-74
2022/06/02 11:56:55;;;;;;;3.90;1.60;;;32.50;1.00;;;;;;5051139;28;20611;-76
2022/06/02 12:00:06;;;;;;;6.03;1.70;;;32.00;1.00;;;;;;5067538;28;20517;-75
2022/06/02 12:03:08;;;;;;;4.20;1.40;;;31.10;1.00;;;;;;5075078;28;20463;-75
2022/06/02 12:06:06;;;;;;;4.10;1.50;;;32.10;1.00;;;;;;5065729;28;20538;-77
2022/06/02 12:09:05;;;;;;;3.47;1.00;;;33.00;1.00;;;;;;5075258;28;20486;-75
2022/06/02 12:11:54;;;;;;;3.80;1.10;;;32.90;1.00;;;;;;5070633;28;20468;-76
2022/06/02 12:14:45;;;;;;;3.10;1.00;;;33.00;1.00;;;;;;5075965;28;20420;-75
2022/06/02 12:17:48;;;;;;;4.17;1.37;;;33.80;1.00;;;;;;5071029;28;20467;-75
2022/06/02 12:20:47;;;;;;;4.57;1.80;;;34.30;1.00;;;;;;5069434;28;20550;-76
2022/06/02 12:23:44;;;;;;;3.90;1.07;;;35.00;1.00;;;;;;5068756;28;20502;-76
2022/06/02 12:26:21;;;;;;;3.70;1.57;;;35.00;1.00;;;;;;5071616;28;20488;-74
2022/06/02 12:29:25;;;;;;;3.73;1.50;;;33.50;1.00;;;;;;5064169;28;20449;-78
2022/06/02 12:32:31;;;;;;;4.73;1.70;;;31.20;1.00;;;;;;5065122;28;20771;-75
2022/06/02 12:35:35;;;;;;;3.60;1.00;;;31.90;1.00;;;;;;5066772;28;20518;-76
2022/06/02 12:38:25;;;;;;;3.63;1.10;;;31.60;1.00;;;;;;5067949;28;20490;-76
2022/06/02 12:41:12;;;;;;;4.80;1.70;;;30.20;1.00;;;;;;5065607;28;20518;-77
2022/06/02 12:44:16;;;;;;;5.07;1.50;;;31.10;1.00;;;;;;5057900;28;20521;-76
2022/06/02 12:47:03;;;;;;;4.23;1.70;;;31.00;1.00;;;;;;5066441;28;20625;-75
2022/06/02 12:49:55;;;;;;;4.93;1.23;;;29.00;1.00;;;;;;5069213;28;20878;-75
2022/06/02 12:52:56;;;;;;;4.90;1.73;;;29.50;1.00;;;;;;5065011;28;20894;-75
2022/06/02 12:55:44;;;;;;;4.30;1.10;;;31.40;1.00;;;;;;5064416;28;20493;-75
2022/06/02 12:58:56;;;;;;;5.27;2.30;;;30.70;1.00;;;;;;5070321;28;20451;-76
2022/06/02 13:01:48;;;;;;;4.10;1.40;;;29.60;1.00;;;;;;5059933;28;20467;-76
2022/06/02 13:04:58;;;;;;;4.03;1.30;;;30.10;1.00;;;;;;5065770;28;20464;-75
2022/06/02 13:07:58;;;;;;;3.57;1.13;;;31.10;1.00;;;;;;5069503;28;21043;-76
2022/06/02 13:10:41;;;;;;;4.17;1.37;;;33.00;1.00;;;;;;5065617;28;20459;-77
2022/06/02 13:13:42;;;;;;;6.00;1.50;;;34.10;1.00;;;;;;5064286;28;20914;-75
2022/06/02 13:16:34;;;;;;;3.90;1.20;;;34.00;1.00;;;;;;5028327;28;20470;-76
2022/06/02 13:19:20;;;;;;;3.93;1.50;;;30.60;1.00;;;;;;5067883;28;20467;-76
2022/06/02 13:22:08;;;;;;;3.93;1.60;;;29.50;1.00;;;;;;5064713;28;20455;-77
2022/06/02 13:25:03;;;;;;;4.10;1.40;;;30.40;1.00;;;;;;5065838;28;20458;-76
2022/06/02 13:28:06;;;;;;;3.30;1.30;;;29.00;1.00;;;;;;5065131;28;20490;-75
2022/06/02 13:30:54;;;;;;;4.07;1.60;;;29.60;1.00;;;;;;5063857;27;20425;-77
2022/06/02 13:33:55;;;;;;;3.90;1.30;;;29.70;1.00;;;;;;5071257;28;20897;-76
2022/06/02 13:36:37;;;;;;;4.07;1.47;;;28.20;1.00;;;;;;5067056;28;20494;-76
2022/06/02 13:39:29;;;;;;;4.87;1.60;;;27.10;1.00;;;;;;5067902;28;20463;-75
2022/06/02 13:42:32;;;;;;;4.70;1.87;;;26.10;1.00;;;;;;5063982;28;20460;-76
2022/06/02 13:45:38;;;;;;;3.80;1.30;;;25.60;1.00;;;;;;5056897;28;20466;-76
2022/06/02 13:48:35;;;;;;;4.70;1.60;;;28.00;1.00;;;;;;5044815;28;20463;-76
2022/06/02 13:51:36;;;;;;;6.60;2.07;;;29.20;1.00;;;;;;5035654;28;20547;-76
2022/06/02 13:57:42;;;;;;;3.53;1.17;;;28.50;1.00;;;;;;5060037;28;20545;-76
2022/06/02 14:00:19;;;;;;;6.10;2.10;;;28.00;1.00;;;;;;5070448;28;20504;-76
2022/06/02 14:03:14;;;;;;;5.13;1.60;;;29.00;1.00;;;;;;5068703;28;20462;-76
2022/06/02 14:05:53;;;;;;;3.50;1.33;;;31.10;1.00;;;;;;5065459;28;20461;-75
2022/06/02 14:08:37;;;;;;;6.10;2.00;;;31.60;1.00;;;;;;5073392;28;20467;-75
2022/06/02 14:11:13;;;;;;;5.60;1.70;;;29.40;1.00;;;;;;5066009;28;20471;-76
2022/06/02 14:14:01;;;;;;;5.13;1.80;;;27.20;1.00;;;;;;5068050;28;20498;-76
2022/06/02 14:16:42;;;;;;;4.50;2.00;;;25.80;1.00;;;;;;5069954;28;20952;-74
2022/06/02 14:19:27;;;;;;;5.70;2.17;;;25.10;1.00;;;;;;5067710;28;20465;-76
2022/06/02 14:22:03;;;;;;;6.13;1.90;;;24.40;1.00;;;;;;5065633;28;20919;-74
2022/06/02 14:24:47;;;;;;;5.43;2.10;;;23.70;1.00;;;;;;5066455;28;20478;-75
2022/06/02 14:27:26;;;;;;;4.07;1.70;;;23.40;1.00;;;;;;5067518;28;20468;-76
2022/06/02 14:30:09;;;;;;;8.40;3.27;;;24.30;1.00;;;;;;5070364;28;20513;-76
2022/06/02 14:32:46;;;;;;;4.63;1.70;;;26.50;1.00;;;;;;5064968;28;20456;-75
2022/06/02 14:35:37;;;;;;;6.77;1.90;;;27.50;1.00;;;;;;5069978;28;20842;-76
2022/06/02 14:38:14;;;;;;;4.77;1.77;;;27.30;1.00;;;;;;5070977;28;20946;-75
2022/06/02 14:40:46;;;;;;;6.33;3.27;;;26.10;1.00;;;;;;5070338;28;20483;-76
2022/06/02 14:43:30;;;;;;;4.63;2.13;;;25.20;1.00;;;;;;5069061;28;20562;-77
2022/06/02 14:46:25;;;;;;;4.37;1.90;;;24.30;1.00;;;;;;5071973;28;20839;-74
2022/06/02 14:49:05;;;;;;;6.93;3.50;;;23.50;1.00;;;;;;5066102;28;20475;-76
2022/06/02 14:51:35;;;;;;;5.47;2.33;;;23.30;1.00;;;;;;5071766;28;20507;-78